createdAt,value
2022-12-31T00:01:53.804Z,0.63
2022-12-31T00:04:20.717Z,2.17
2022-12-31T00:06:47.769Z,0.80
2022-12-31T00:09:14.624Z,0.70
2022-12-31T00:11:41.696Z,0.80
2022-12-31T00:14:08.599Z,1.27
2022-12-31T00:16:39.396Z,1.98
2022-12-31T00:19:08.960Z,0.70
2022-12-31T00:21:36.826Z,0.55
2022-12-31T00:24:05.079Z,1.48
2022-12-31T00:26:33.808Z,0.70
2022-12-31T00:29:02.065Z,0.88
2022-12-31T00:31:31.637Z,0.75
2022-12-31T00:33:59.349Z,0.70
2022-12-31T00:36:46.087Z,0.50
2022-12-31T00:39:13.172Z,0.57
2022-12-31T00:41:39.995Z,0.50
2022-12-31T00:44:07.008Z,0.65
2022-12-31T00:49:00.606Z,0.60
2022-12-31T00:51:28.210Z,1.00
2022-12-31T00:53:56.708Z,0.60
2022-12-31T00:56:26.653Z,0.93
2022-12-31T00:58:54.721Z,0.50
2022-12-31T01:01:24.525Z,0.50
2022-12-31T01:03:54.210Z,0.38
2022-12-31T01:06:21.579Z,0.50
2022-12-31T01:08:49.849Z,1.85
2022-12-31T01:11:22.620Z,0.50
2022-12-31T01:13:51.976Z,0.50
2022-12-31T01:16:21.590Z,2.33
2022-12-31T01:18:49.507Z,0.65
2022-12-31T01:21:17.736Z,0.50
2022-12-31T01:23:44.844Z,1.20
2022-12-31T01:26:14.416Z,0.60
2022-12-31T01:28:41.572Z,0.90
2022-12-31T01:31:11.618Z,0.88
2022-12-31T01:33:39.680Z,0.70
2022-12-31T01:36:10.146Z,1.55
2022-12-31T01:38:37.244Z,0.68
2022-12-31T01:41:04.899Z,0.80
2022-12-31T01:44:02.800Z,0.95
2022-12-31T01:46:37.766Z,2.20
2022-12-31T01:49:17.430Z,0.80
2022-12-31T01:51:48.758Z,0.98
2022-12-31T01:54:19.145Z,0.70
2022-12-31T01:56:50.646Z,0.90
2022-12-31T01:59:19.070Z,1.05
2022-12-31T02:01:48.585Z,0.70
2022-12-31T02:04:16.971Z,0.68
2022-12-31T02:07:16.458Z,0.75
2022-12-31T02:09:43.540Z,1.75
2022-12-31T02:12:11.510Z,0.70
2022-12-31T02:14:45.293Z,0.70
2022-12-31T02:18:04.039Z,0.68
2022-12-31T02:21:08.438Z,1.60
2022-12-31T02:24:10.540Z,0.73
2022-12-31T02:26:45.741Z,1.10
2022-12-31T02:29:46.711Z,1.48
2022-12-31T02:36:12.866Z,0.90
2022-12-31T02:38:44.426Z,1.05
2022-12-31T02:41:36.550Z,0.85
2022-12-31T02:44:26.363Z,1.10
2022-12-31T02:47:00.091Z,14.18
2022-12-31T02:50:08.680Z,2.58
2022-12-31T02:53:05.943Z,2.20
2022-12-31T02:55:41.375Z,1.15
2022-12-31T02:58:53.286Z,1.30
2022-12-31T03:01:51.456Z,0.98
2022-12-31T03:04:36.046Z,1.30
2022-12-31T03:07:15.661Z,1.38
2022-12-31T03:09:42.741Z,1.38
2022-12-31T03:12:31.657Z,2.90
2022-12-31T03:14:59.134Z,1.40
2022-12-31T03:17:26.394Z,2.47
2022-12-31T03:20:11.989Z,2.00
2022-12-31T03:22:42.299Z,1.48
2022-12-31T03:28:57.070Z,0.98
2022-12-31T03:31:24.182Z,1.45
2022-12-31T03:33:51.082Z,2.08
2022-12-31T03:36:17.925Z,1.13
2022-12-31T03:38:48.589Z,1.88
2022-12-31T03:41:19.578Z,2.22
2022-12-31T03:43:46.493Z,1.05
2022-12-31T03:46:13.499Z,4.43
2022-12-31T03:48:41.009Z,3.08
2022-12-31T03:51:08.137Z,1.85
2022-12-31T03:53:35.722Z,1.58
2022-12-31T03:56:02.844Z,1.55
2022-12-31T03:58:29.758Z,1.25
2022-12-31T04:00:57.004Z,1.55
2022-12-31T04:03:24.597Z,1.45
2022-12-31T04:05:57.565Z,2.70
2022-12-31T04:08:25.515Z,1.30
2022-12-31T04:10:52.494Z,1.77
2022-12-31T04:13:19.757Z,1.40
2022-12-31T04:15:50.909Z,1.30
2022-12-31T04:18:18.316Z,2.53
2022-12-31T04:20:45.274Z,1.30
2022-12-31T04:23:14.792Z,4.35
2022-12-31T04:25:41.732Z,1.40
2022-12-31T04:28:08.783Z,3.05
2022-12-31T04:30:35.615Z,2.75
2022-12-31T04:33:02.553Z,1.45
2022-12-31T04:35:29.638Z,2.35
2022-12-31T04:37:56.662Z,1.65
2022-12-31T04:40:24.017Z,2.33
2022-12-31T04:42:51.009Z,3.35
2022-12-31T04:45:17.867Z,2.97
2022-12-31T04:47:45.919Z,3.47
2022-12-31T04:50:13.578Z,1.40
2022-12-31T04:52:43.011Z,3.03
2022-12-31T04:55:10.447Z,3.10
2022-12-31T04:57:37.337Z,1.20
2022-12-31T05:00:05.401Z,1.25
2022-12-31T05:02:32.690Z,2.10
2022-12-31T05:04:59.737Z,1.10
2022-12-31T05:07:26.886Z,1.00
2022-12-31T05:09:53.814Z,3.28
2022-12-31T05:12:20.841Z,1.20
2022-12-31T05:14:47.814Z,1.85
2022-12-31T05:17:14.732Z,1.63
2022-12-31T05:19:41.592Z,0.98
2022-12-31T05:22:28.649Z,0.77
2022-12-31T05:24:56.484Z,1.05
2022-12-31T05:27:23.454Z,1.00
2022-12-31T05:29:50.519Z,1.00
2022-12-31T05:32:17.423Z,1.70
2022-12-31T05:34:44.433Z,0.85
2022-12-31T05:37:12.127Z,1.27
2022-12-31T05:39:39.100Z,1.10
2022-12-31T05:42:05.958Z,1.05
2022-12-31T05:44:32.985Z,2.47
2022-12-31T05:46:59.905Z,1.17
2022-12-31T05:49:26.806Z,2.42
2022-12-31T05:51:53.739Z,0.90
2022-12-31T05:54:20.659Z,1.35
2022-12-31T05:56:47.531Z,2.22
2022-12-31T05:59:14.720Z,0.80
2022-12-31T06:01:41.669Z,1.08
2022-12-31T06:04:08.596Z,2.15
2022-12-31T06:06:35.571Z,2.20
2022-12-31T06:09:02.857Z,0.90
2022-12-31T06:11:29.993Z,2.00
2022-12-31T06:13:58.425Z,1.42
2022-12-31T06:16:25.588Z,3.25
2022-12-31T06:18:52.885Z,0.90
2022-12-31T06:21:21.265Z,0.90
2022-12-31T06:23:49.051Z,1.00
2022-12-31T06:26:16.525Z,2.00
2022-12-31T06:28:43.687Z,1.75
2022-12-31T06:31:13.626Z,1.27
2022-12-31T06:33:41.287Z,1.50
2022-12-31T06:36:11.466Z,3.35
2022-12-31T06:38:40.664Z,0.82
2022-12-31T06:41:10.394Z,2.92
2022-12-31T06:43:38.638Z,2.85
2022-12-31T06:46:07.590Z,1.17
2022-12-31T06:48:34.873Z,1.42
2022-12-31T06:51:16.778Z,1.70
2022-12-31T06:53:48.612Z,0.80
2022-12-31T06:56:42.107Z,0.95
2022-12-31T06:59:24.431Z,1.17
2022-12-31T07:02:20.011Z,2.85
2022-12-31T07:04:57.016Z,0.85
2022-12-31T07:07:34.622Z,1.63
2022-12-31T07:10:07.719Z,1.77
2022-12-31T07:12:46.638Z,10.90
2022-12-31T07:15:17.188Z,0.88
2022-12-31T07:18:05.816Z,2.45
2022-12-31T07:20:33.000Z,0.93
2022-12-31T07:23:00.351Z,1.55
2022-12-31T07:25:27.922Z,2.78
2022-12-31T07:28:04.070Z,3.22
2022-12-31T07:30:34.257Z,1.38
2022-12-31T07:33:03.848Z,1.13
2022-12-31T07:35:45.842Z,1.85
2022-12-31T07:38:37.496Z,1.63
2022-12-31T07:41:10.418Z,2.47
2022-12-31T07:44:01.532Z,1.25
2022-12-31T07:46:37.300Z,1.67
2022-12-31T07:49:04.769Z,1.30
2022-12-31T07:51:31.914Z,1.38
2022-12-31T07:53:59.065Z,1.27
2022-12-31T07:56:26.231Z,1.65
2022-12-31T07:59:05.756Z,2.67
2022-12-31T08:02:04.935Z,2.50
2022-12-31T08:04:38.636Z,2.38
2022-12-31T08:07:34.469Z,2.17
2022-12-31T08:10:22.888Z,1.85
2022-12-31T08:12:50.274Z,2.45
2022-12-31T08:15:19.130Z,1.55
2022-12-31T08:17:46.447Z,1.30
2022-12-31T08:20:16.374Z,1.40
2022-12-31T08:23:15.416Z,1.45
2022-12-31T08:26:07.065Z,1.42
2022-12-31T08:28:47.151Z,1.63
2022-12-31T08:31:22.661Z,1.70
2022-12-31T08:34:30.641Z,1.43
2022-12-31T08:39:52.063Z,2.35
2022-12-31T08:42:51.958Z,1.98
2022-12-31T08:45:29.004Z,3.50
2022-12-31T08:48:04.017Z,1.63
2022-12-31T08:50:31.272Z,2.17
2022-12-31T08:52:58.714Z,1.50
2022-12-31T08:55:25.971Z,1.90
2022-12-31T08:58:18.720Z,2.38
2022-12-31T09:00:57.148Z,1.52
2022-12-31T09:03:49.320Z,1.90
2022-12-31T09:06:21.929Z,2.10
2022-12-31T09:09:01.004Z,2.40
2022-12-31T09:11:37.037Z,2.35
2022-12-31T09:17:17.086Z,2.45
2022-12-31T09:19:44.222Z,1.63
2022-12-31T09:22:11.754Z,2.08
2022-12-31T09:24:38.929Z,1.83
2022-12-31T09:27:14.906Z,3.35
2022-12-31T09:29:53.805Z,2.72
2022-12-31T09:32:40.006Z,5.22
2022-12-31T09:35:11.221Z,2.80
2022-12-31T09:37:47.158Z,2.22
2022-12-31T09:40:29.332Z,1.50
2022-12-31T09:43:39.427Z,3.97
2022-12-31T09:46:24.679Z,2.20
2022-12-31T09:49:18.614Z,2.55
2022-12-31T09:52:12.427Z,5.53
2022-12-31T09:55:33.290Z,1.67
2022-12-31T09:58:06.413Z,3.97
2022-12-31T10:00:54.258Z,1.92
2022-12-31T10:03:39.533Z,1.50
2022-12-31T10:06:27.210Z,3.83
2022-12-31T10:09:29.238Z,1.80
2022-12-31T10:12:34.747Z,2.08
2022-12-31T10:15:35.505Z,1.67
2022-12-31T10:18:17.502Z,2.03
2022-12-31T10:20:51.180Z,2.67
2022-12-31T10:23:50.492Z,2.78
2022-12-31T10:26:23.375Z,2.33
2022-12-31T10:29:09.360Z,1.67
2022-12-31T10:31:39.464Z,3.45
2022-12-31T10:34:20.018Z,2.58
2022-12-31T10:36:55.786Z,1.75
2022-12-31T10:39:36.191Z,3.63
2022-12-31T10:42:22.526Z,3.63
2022-12-31T10:45:01.869Z,2.55
2022-12-31T10:47:47.885Z,4.45
2022-12-31T10:50:18.183Z,4.33
2022-12-31T10:53:29.495Z,1.60
2022-12-31T10:56:13.558Z,4.40
2022-12-31T10:59:10.863Z,2.60
2022-12-31T11:01:50.019Z,2.58
2022-12-31T11:04:39.007Z,1.65
2022-12-31T11:07:47.908Z,1.70
2022-12-31T11:10:37.430Z,3.85
2022-12-31T11:13:04.748Z,1.90
2022-12-31T11:15:38.889Z,2.20
2022-12-31T11:18:23.514Z,1.75
2022-12-31T11:21:04.580Z,2.67
2022-12-31T11:23:47.918Z,5.15
2022-12-31T11:26:19.278Z,1.58
2022-12-31T11:29:25.366Z,2.08
2022-12-31T11:32:15.710Z,3.40
2022-12-31T11:34:55.172Z,2.20
2022-12-31T11:37:31.565Z,2.25
2022-12-31T11:43:00.956Z,4.20
2022-12-31T11:45:57.561Z,1.73
2022-12-31T11:48:51.684Z,2.13
2022-12-31T11:52:00.001Z,2.53
2022-12-31T11:54:39.329Z,1.88
2022-12-31T11:57:17.666Z,2.08
2022-12-31T11:59:44.929Z,1.92
2022-12-31T12:02:29.142Z,1.40
2022-12-31T12:05:03.821Z,1.48
2022-12-31T12:07:37.151Z,3.90
2022-12-31T12:10:33.782Z,3.67
2022-12-31T12:13:14.464Z,1.90
2022-12-31T12:15:46.099Z,4.43
2022-12-31T12:18:30.505Z,5.85
2022-12-31T12:21:11.962Z,3.92
2022-12-31T12:23:40.571Z,3.40
2022-12-31T12:26:25.394Z,3.35
2022-12-31T12:28:52.434Z,1.95
2022-12-31T12:31:23.148Z,1.58
2022-12-31T12:33:51.768Z,2.35
2022-12-31T12:36:20.986Z,2.60
2022-12-31T12:38:48.498Z,2.65
2022-12-31T12:41:25.616Z,3.83
2022-12-31T12:44:06.967Z,3.25
2022-12-31T12:46:41.561Z,15.85
2022-12-31T12:49:25.843Z,1.30
2022-12-31T12:52:30.749Z,1.50
2022-12-31T12:55:16.894Z,1.90
2022-12-31T12:58:29.168Z,2.72
2022-12-31T13:01:58.069Z,2.00
2022-12-31T13:04:46.543Z,2.35
2022-12-31T13:07:27.913Z,1.73
2022-12-31T13:09:57.464Z,2.97
2022-12-31T13:13:22.871Z,3.20
2022-12-31T13:15:55.450Z,2.92
2022-12-31T13:18:25.207Z,2.50
2022-12-31T13:21:04.100Z,2.95
2022-12-31T13:23:43.186Z,1.50
2022-12-31T13:26:19.489Z,1.42
2022-12-31T13:28:49.128Z,3.03
2022-12-31T13:31:21.235Z,2.67
2022-12-31T13:33:59.155Z,1.77
2022-12-31T13:36:29.029Z,2.88
2022-12-31T13:39:01.008Z,1.50
2022-12-31T13:41:34.605Z,0.93
2022-12-31T13:44:10.365Z,2.20
2022-12-31T13:46:49.077Z,2.65
2022-12-31T13:49:21.685Z,1.23
2022-12-31T13:51:58.874Z,2.13
2022-12-31T13:54:55.871Z,1.67
2022-12-31T13:57:52.399Z,2.15
2022-12-31T14:00:21.726Z,1.20
2022-12-31T14:03:04.918Z,1.20
2022-12-31T14:05:38.615Z,2.22
2022-12-31T14:08:06.432Z,2.08
2022-12-31T14:11:10.426Z,1.30
2022-12-31T14:13:56.005Z,2.20
2022-12-31T14:16:48.549Z,1.20
2022-12-31T14:19:41.510Z,1.40
2022-12-31T14:22:39.292Z,1.20
2022-12-31T14:25:22.663Z,1.10
2022-12-31T14:27:52.287Z,1.20
2022-12-31T14:30:25.542Z,2.35
2022-12-31T14:33:10.869Z,2.20
2022-12-31T14:35:52.234Z,1.42
2022-12-31T14:38:21.925Z,3.30
2022-12-31T14:41:07.053Z,1.65
2022-12-31T14:44:03.059Z,3.47
2022-12-31T14:46:58.767Z,1.63
2022-12-31T14:49:37.724Z,4.85
2022-12-31T14:52:17.828Z,1.60
2022-12-31T14:54:44.736Z,1.45
2022-12-31T14:57:23.515Z,1.20
2022-12-31T15:00:01.941Z,3.05
2022-12-31T15:02:32.608Z,2.35
2022-12-31T15:05:11.791Z,25.13
2022-12-31T15:07:47.434Z,1.83
2022-12-31T15:10:24.786Z,1.40
2022-12-31T15:13:00.461Z,2.65
2022-12-31T15:15:54.222Z,2.67
2022-12-31T15:18:27.320Z,2.55
2022-12-31T15:21:24.856Z,2.53
2022-12-31T15:29:05.968Z,1.88
2022-12-31T15:31:35.321Z,1.33
2022-12-31T15:34:07.950Z,2.47
2022-12-31T15:36:38.639Z,1.50
2022-12-31T15:39:11.342Z,2.38
2022-12-31T15:42:18.558Z,1.40
2022-12-31T15:44:54.817Z,1.85
2022-12-31T15:47:47.125Z,1.15
2022-12-31T15:50:18.959Z,1.30
2022-12-31T15:53:00.020Z,1.98
2022-12-31T15:55:38.023Z,3.08
2022-12-31T15:58:11.035Z,2.65
2022-12-31T16:00:55.300Z,2.70
2022-12-31T16:03:26.023Z,1.33
2022-12-31T16:05:59.295Z,1.20
2022-12-31T16:08:31.580Z,1.60
2022-12-31T16:10:59.335Z,1.77
2022-12-31T16:13:29.499Z,0.90
2022-12-31T16:16:08.704Z,2.33
2022-12-31T16:18:43.405Z,2.05
2022-12-31T16:21:33.308Z,3.75
2022-12-31T16:24:27.757Z,1.75
2022-12-31T16:26:59.163Z,1.30
2022-12-31T16:29:26.208Z,3.67
2022-12-31T16:31:54.510Z,32.58
2022-12-31T16:34:36.253Z,1.95
2022-12-31T16:37:14.891Z,5.75
2022-12-31T16:40:18.027Z,1.85
2022-12-31T16:42:47.032Z,1.65
2022-12-31T16:45:31.385Z,4.07
2022-12-31T16:48:12.827Z,3.30
2022-12-31T16:50:49.486Z,3.10
2022-12-31T16:53:24.878Z,1.40
2022-12-31T16:55:55.724Z,2.08
2022-12-31T16:58:29.716Z,2.00
2022-12-31T17:01:09.130Z,2.08
2022-12-31T17:03:41.774Z,2.35
2022-12-31T17:06:13.904Z,3.55
2022-12-31T17:08:44.675Z,1.75
2022-12-31T17:11:33.793Z,1.48
2022-12-31T17:14:13.198Z,2.10
2022-12-31T17:17:03.132Z,1.60
2022-12-31T17:19:50.378Z,2.22
2022-12-31T17:22:35.732Z,1.87
2022-12-31T17:25:07.181Z,2.03
2022-12-31T17:27:36.288Z,2.67
2022-12-31T17:30:38.046Z,1.77
2022-12-31T17:33:15.446Z,1.58
2022-12-31T17:35:44.397Z,2.65
2022-12-31T17:38:26.214Z,1.88
2022-12-31T17:41:06.500Z,1.30
2022-12-31T17:43:42.772Z,1.60
2022-12-31T17:46:16.239Z,3.03
2022-12-31T17:48:50.357Z,1.40
2022-12-31T17:51:17.744Z,2.47
2022-12-31T17:53:51.799Z,26.35
2022-12-31T17:56:20.574Z,2.13
2022-12-31T17:58:49.933Z,1.58
2022-12-31T18:01:19.484Z,2.08
2022-12-31T18:03:48.076Z,2.65
2022-12-31T18:06:19.805Z,1.27
2022-12-31T18:08:50.690Z,1.20
2022-12-31T18:11:22.968Z,1.10
2022-12-31T18:13:50.710Z,4.35
2022-12-31T18:16:17.792Z,1.70
2022-12-31T18:18:45.550Z,2.85
2022-12-31T18:21:32.772Z,2.47
2022-12-31T18:26:28.783Z,2.00
2022-12-31T18:29:12.224Z,2.38
2022-12-31T18:31:39.572Z,2.30
2022-12-31T18:34:06.539Z,4.63
2022-12-31T19:35:53.034Z,1.35
2022-12-31T19:38:25.765Z,1.40
2022-12-31T19:40:53.747Z,1.88
2022-12-31T19:43:22.425Z,2.67
2022-12-31T19:45:51.022Z,2.13
2022-12-31T19:48:22.203Z,1.88
2022-12-31T19:50:53.447Z,1.95
2022-12-31T19:53:26.648Z,4.95
2022-12-31T19:55:54.150Z,4.10
2022-12-31T19:58:25.430Z,2.95
2022-12-31T20:01:01.042Z,1.60
2022-12-31T20:03:29.713Z,1.40
2022-12-31T20:06:08.833Z,2.90
2022-12-31T20:08:37.924Z,1.55
2022-12-31T20:11:19.359Z,2.28
2022-12-31T20:13:48.234Z,3.22
2022-12-31T20:16:21.152Z,2.35
2022-12-31T20:18:48.742Z,1.33
2022-12-31T20:21:19.269Z,3.13
2022-12-31T20:23:47.233Z,2.30
2022-12-31T20:26:14.124Z,2.88
2022-12-31T20:28:41.043Z,3.80
2022-12-31T20:31:09.620Z,2.17
2022-12-31T20:33:37.175Z,1.30
2022-12-31T21:38:07.925Z,1.70
2022-12-31T21:40:35.174Z,1.73
2022-12-31T21:43:02.094Z,2.13
2022-12-31T21:45:29.099Z,7.10
2022-12-31T21:48:18.053Z,2.30
2022-12-31T21:50:46.359Z,3.47
2022-12-31T21:53:13.122Z,3.92
2022-12-31T21:56:02.934Z,4.72
2022-12-31T21:58:30.292Z,5.32
2022-12-31T22:08:39.998Z,3.00
2022-12-31T22:11:10.018Z,3.88
2022-12-31T22:13:39.523Z,4.50
2022-12-31T22:16:07.575Z,3.65
2022-12-31T22:18:42.135Z,4.50
2022-12-31T22:21:24.210Z,4.13
2022-12-31T22:23:53.776Z,2.60
2022-12-31T22:26:25.229Z,2.20
2022-12-31T22:28:59.099Z,1.80
2022-12-31T22:31:31.549Z,2.63
2022-12-31T22:33:59.353Z,5.55
2022-12-31T23:38:18.687Z,129.10
2022-12-31T23:40:46.031Z,116.30
2022-12-31T23:43:21.234Z,97.45
2022-12-31T23:45:52.532Z,66.47
2022-12-31T23:48:20.350Z,55.00
2022-12-31T23:50:53.446Z,45.63
2022-12-31T23:53:26.279Z,36.22
2022-12-31T23:55:54.858Z,40.17
2022-12-31T23:58:22.648Z,39.25
